sensor_id;sensor_type;location;lat;lon;timestamp;P1;durP1;ratioP1;P2;durP2;ratioP2
32242;SDS011;18731;42.830;24.390;2023-03-24T04:01:02;6.05;;;4.10;;
32242;SDS011;18731;42.830;24.390;2023-03-24T04:22:43;10.75;;;4.07;;
32242;SDS011;18731;42.830;24.390;2023-03-24T04:25:24;9.73;;;5.18;;
32242;SDS011;18731;42.830;24.390;2023-03-24T04:31:02;8.55;;;4.80;;
32242;SDS011;18731;42.830;24.390;2023-03-24T04:33:36;11.98;;;7.45;;
32242;SDS011;18731;42.830;24.390;2023-03-24T04:36:18;23.50;;;11.30;;
32242;SDS011;18731;42.830;24.390;2023-03-24T04:38:51;27.40;;;13.88;;
32242;SDS011;18731;42.830;24.390;2023-03-24T04:41:21;19.10;;;11.23;;
32242;SDS011;18731;42.830;24.390;2023-03-24T04:43:50;43.95;;;24.67;;
32242;SDS011;18731;42.830;24.390;2023-03-24T04:46:19;48.47;;;26.77;;
32242;SDS011;18731;42.830;24.390;2023-03-24T04:48:45;46.22;;;22.95;;
32242;SDS011;18731;42.830;24.390;2023-03-24T04:51:15;31.25;;;15.80;;
32242;SDS011;18731;42.830;24.390;2023-03-24T04:53:42;26.35;;;12.77;;
32242;SDS011;18731;42.830;24.390;2023-03-24T04:56:17;36.92;;;16.75;;
32242;SDS011;18731;42.830;24.390;2023-03-24T04:58:50;128.27;;;65.05;;
32242;SDS011;18731;42.830;24.390;2023-03-24T05:01:16;60.92;;;29.77;;
32242;SDS011;18731;42.830;24.390;2023-03-24T05:03:41;70.78;;;33.35;;
32242;SDS011;18731;42.830;24.390;2023-03-24T05:06:10;46.15;;;24.33;;
32242;SDS011;18731;42.830;24.390;2023-03-24T05:08:37;34.15;;;18.23;;
32242;SDS011;18731;42.830;24.390;2023-03-24T05:11:02;20.17;;;11.77;;
32242;SDS011;18731;42.830;24.390;2023-03-24T05:13:28;17.90;;;8.63;;
32242;SDS011;18731;42.830;24.390;2023-03-24T05:15:54;20.98;;;11.48;;
32242;SDS011;18731;42.830;24.390;2023-03-24T05:18:20;16.50;;;7.80;;
32242;SDS011;18731;42.830;24.390;2023-03-24T05:20:46;10.98;;;6.18;;
32242;SDS011;18731;42.830;24.390;2023-03-24T05:23:11;8.85;;;5.75;;
32242;SDS011;18731;42.830;24.390;2023-03-24T05:25:37;8.35;;;5.75;;
32242;SDS011;18731;42.830;24.390;2023-03-24T05:28:03;32.42;;;18.17;;
32242;SDS011;18731;42.830;24.390;2023-03-24T05:30:29;19.42;;;11.77;;
32242;SDS011;18731;42.830;24.390;2023-03-24T05:32:55;11.02;;;6.47;;
32242;SDS011;18731;42.830;24.390;2023-03-24T05:35:20;5.47;;;4.20;;
32242;SDS011;18731;42.830;24.390;2023-03-24T05:37:46;7.57;;;4.70;;
32242;SDS011;18731;42.830;24.390;2023-03-24T05:40:11;5.88;;;3.65;;
32242;SDS011;18731;42.830;24.390;2023-03-24T05:42:37;11.50;;;4.25;;
32242;SDS011;18731;42.830;24.390;2023-03-24T05:45:03;6.90;;;4.35;;
32242;SDS011;18731;42.830;24.390;2023-03-24T05:47:30;6.43;;;2.88;;
32242;SDS011;18731;42.830;24.390;2023-03-24T05:49:56;6.85;;;2.90;;
32242;SDS011;18731;42.830;24.390;2023-03-24T05:52:21;6.15;;;3.80;;
32242;SDS011;18731;42.830;24.390;2023-03-24T05:54:47;5.47;;;4.22;;
32242;SDS011;18731;42.830;24.390;2023-03-24T05:57:16;6.65;;;2.70;;
32242;SDS011;18731;42.830;24.390;2023-03-24T05:59:44;7.43;;;2.70;;
32242;SDS011;18731;42.830;24.390;2023-03-24T06:02:10;5.30;;;2.40;;
32242;SDS011;18731;42.830;24.390;2023-03-24T06:04:36;2.70;;;2.20;;
32242;SDS011;18731;42.830;24.390;2023-03-24T06:07:02;14.55;;;8.80;;
32242;SDS011;18731;42.830;24.390;2023-03-24T06:09:29;47.08;;;21.02;;
32242;SDS011;18731;42.830;24.390;2023-03-24T06:12:00;55.97;;;24.13;;
32242;SDS011;18731;42.830;24.390;2023-03-24T06:14:27;26.90;;;10.27;;
32242;SDS011;18731;42.830;24.390;2023-03-24T06:16:53;8.98;;;3.65;;
32242;SDS011;18731;42.830;24.390;2023-03-24T06:19:23;5.50;;;3.38;;
32242;SDS011;18731;42.830;24.390;2023-03-24T06:21:55;3.97;;;2.90;;
32242;SDS011;18731;42.830;24.390;2023-03-24T06:24:25;7.88;;;4.95;;
32242;SDS011;18731;42.830;24.390;2023-03-24T06:26:51;8.48;;;5.35;;
32242;SDS011;18731;42.830;24.390;2023-03-24T06:29:17;6.32;;;4.00;;
32242;SDS011;18731;42.830;24.390;2023-03-24T06:31:43;6.78;;;2.42;;
32242;SDS011;18731;42.830;24.390;2023-03-24T06:34:09;5.00;;;2.33;;
32242;SDS011;18731;42.830;24.390;2023-03-24T06:36:35;3.67;;;2.50;;
32242;SDS011;18731;42.830;24.390;2023-03-24T06:39:01;4.32;;;2.38;;
32242;SDS011;18731;42.830;24.390;2023-03-24T06:41:29;6.00;;;2.45;;
32242;SDS011;18731;42.830;24.390;2023-03-24T06:43:55;2.90;;;2.10;;
32242;SDS011;18731;42.830;24.390;2023-03-24T06:46:22;5.65;;;2.42;;
32242;SDS011;18731;42.830;24.390;2023-03-24T06:48:48;4.20;;;2.97;;
32242;SDS011;18731;42.830;24.390;2023-03-24T06:51:14;3.53;;;2.28;;
32242;SDS011;18731;42.830;24.390;2023-03-24T06:53:39;3.75;;;2.20;;
32242;SDS011;18731;42.830;24.390;2023-03-24T06:56:05;5.32;;;2.50;;
32242;SDS011;18731;42.830;24.390;2023-03-24T06:58:32;2.60;;;2.10;;
32242;SDS011;18731;42.830;24.390;2023-03-24T07:00:59;5.68;;;2.60;;
32242;SDS011;18731;42.830;24.390;2023-03-24T07:03:26;5.10;;;2.60;;
32242;SDS011;18731;42.830;24.390;2023-03-24T07:05:51;8.10;;;2.63;;
32242;SDS011;18731;42.830;24.390;2023-03-24T07:08:17;3.63;;;2.40;;
32242;SDS011;18731;42.830;24.390;2023-03-24T07:10:43;3.40;;;2.30;;
32242;SDS011;18731;42.830;24.390;2023-03-24T07:13:09;4.32;;;3.03;;
32242;SDS011;18731;42.830;24.390;2023-03-24T07:15:36;4.55;;;3.10;;
32242;SDS011;18731;42.830;24.390;2023-03-24T07:18:02;3.58;;;2.70;;
32242;SDS011;18731;42.830;24.390;2023-03-24T07:20:28;3.63;;;2.42;;
32242;SDS011;18731;42.830;24.390;2023-03-24T07:22:54;3.97;;;3.22;;
32242;SDS011;18731;42.830;24.390;2023-03-24T07:25:20;4.18;;;2.83;;
32242;SDS011;18731;42.830;24.390;2023-03-24T07:27:46;5.53;;;3.30;;
32242;SDS011;18731;42.830;24.390;2023-03-24T07:30:12;5.30;;;3.35;;
32242;SDS011;18731;42.830;24.390;2023-03-24T07:32:38;4.75;;;3.20;;
32242;SDS011;18731;42.830;24.390;2023-03-24T07:35:08;4.88;;;3.20;;
32242;SDS011;18731;42.830;24.390;2023-03-24T07:37:35;4.65;;;3.00;;
32242;SDS011;18731;42.830;24.390;2023-03-24T07:40:02;6.15;;;4.25;;
32242;SDS011;18731;42.830;24.390;2023-03-24T07:42:35;5.17;;;3.17;;
32242;SDS011;18731;42.830;24.390;2023-03-24T07:45:01;4.10;;;3.13;;
32242;SDS011;18731;42.830;24.390;2023-03-24T07:47:26;4.80;;;3.42;;
32242;SDS011;18731;42.830;24.390;2023-03-24T07:49:52;3.50;;;2.55;;
32242;SDS011;18731;42.830;24.390;2023-03-24T07:52:18;5.18;;;3.50;;
32242;SDS011;18731;42.830;24.390;2023-03-24T07:54:43;8.25;;;4.30;;
32242;SDS011;18731;42.830;24.390;2023-03-24T07:57:09;7.18;;;4.40;;
32242;SDS011;18731;42.830;24.390;2023-03-24T07:59:35;3.05;;;2.70;;
32242;SDS011;18731;42.830;24.390;2023-03-24T08:02:02;3.97;;;2.45;;
32242;SDS011;18731;42.830;24.390;2023-03-24T08:04:28;5.85;;;3.72;;
32242;SDS011;18731;42.830;24.390;2023-03-24T08:06:54;6.03;;;3.83;;
32242;SDS011;18731;42.830;24.390;2023-03-24T08:09:19;6.63;;;3.80;;
32242;SDS011;18731;42.830;24.390;2023-03-24T08:11:48;5.63;;;3.60;;
32242;SDS011;18731;42.830;24.390;2023-03-24T08:14:13;4.70;;;3.63;;
32242;SDS011;18731;42.830;24.390;2023-03-24T08:16:39;5.30;;;3.65;;
32242;SDS011;18731;42.830;24.390;2023-03-24T08:19:06;4.63;;;3.30;;
32242;SDS011;18731;42.830;24.390;2023-03-24T08:21:32;4.53;;;3.30;;
32242;SDS011;18731;42.830;24.390;2023-03-24T08:23:58;4.05;;;3.65;;
32242;SDS011;18731;42.830;24.390;2023-03-24T08:26:23;5.43;;;3.47;;
32242;SDS011;18731;42.830;24.390;2023-03-24T08:28:51;4.47;;;3.70;;
32242;SDS011;18731;42.830;24.390;2023-03-24T08:31:17;3.55;;;3.10;;
32242;SDS011;18731;42.830;24.390;2023-03-24T08:33:44;6.55;;;3.17;;
32242;SDS011;18731;42.830;24.390;2023-03-24T08:36:09;6.28;;;2.70;;
32242;SDS011;18731;42.830;24.390;2023-03-24T08:38:35;3.03;;;2.20;;
32242;SDS011;18731;42.830;24.390;2023-03-24T08:41:03;2.30;;;2.10;;
32242;SDS011;18731;42.830;24.390;2023-03-24T08:43:34;5.22;;;2.35;;
32242;SDS011;18731;42.830;24.390;2023-03-24T08:46:01;2.72;;;1.83;;
32242;SDS011;18731;42.830;24.390;2023-03-24T08:48:28;1.80;;;1.70;;
32242;SDS011;18731;42.830;24.390;2023-03-24T08:50:55;1.98;;;1.80;;
32242;SDS011;18731;42.830;24.390;2023-03-24T08:53:20;3.25;;;2.40;;
32242;SDS011;18731;42.830;24.390;2023-03-24T08:55:46;6.25;;;3.65;;
32242;SDS011;18731;42.830;24.390;2023-03-24T08:58:16;3.00;;;2.58;;
32242;SDS011;18731;42.830;24.390;2023-03-24T09:00:44;3.22;;;2.33;;
32242;SDS011;18731;42.830;24.390;2023-03-24T09:03:12;3.33;;;2.05;;
32242;SDS011;18731;42.830;24.390;2023-03-24T09:05:42;7.85;;;3.17;;
32242;SDS011;18731;42.830;24.390;2023-03-24T09:08:11;5.40;;;3.30;;
32242;SDS011;18731;42.830;24.390;2023-03-24T09:10:38;2.38;;;1.90;;
32242;SDS011;18731;42.830;24.390;2023-03-24T09:13:05;2.22;;;2.03;;
32242;SDS011;18731;42.830;24.390;2023-03-24T09:15:31;1.90;;;1.80;;
32242;SDS011;18731;42.830;24.390;2023-03-24T09:17:57;2.53;;;2.30;;
32242;SDS011;18731;42.830;24.390;2023-03-24T09:20:23;2.10;;;1.70;;
32242;SDS011;18731;42.830;24.390;2023-03-24T09:22:50;2.38;;;1.88;;
32242;SDS011;18731;42.830;24.390;2023-03-24T09:25:17;2.10;;;1.90;;
32242;SDS011;18731;42.830;24.390;2023-03-24T09:27:44;2.38;;;2.13;;
32242;SDS011;18731;42.830;24.390;2023-03-24T09:30:12;4.28;;;2.00;;
32242;SDS011;18731;42.830;24.390;2023-03-24T09:32:39;3.85;;;2.30;;
32242;SDS011;18731;42.830;24.390;2023-03-24T09:35:05;2.20;;;1.95;;
32242;SDS011;18731;42.830;24.390;2023-03-24T09:37:32;3.05;;;2.40;;
32242;SDS011;18731;42.830;24.390;2023-03-24T09:39:59;2.45;;;2.17;;
32242;SDS011;18731;42.830;24.390;2023-03-24T09:42:27;2.47;;;2.20;;
32242;SDS011;18731;42.830;24.390;2023-03-24T09:44:58;2.47;;;2.20;;
32242;SDS011;18731;42.830;24.390;2023-03-24T09:47:31;2.30;;;2.10;;
32242;SDS011;18731;42.830;24.390;2023-03-24T09:50:02;3.05;;;1.90;;
32242;SDS011;18731;42.830;24.390;2023-03-24T09:52:41;2.35;;;2.15;;
32242;SDS011;18731;42.830;24.390;2023-03-24T09:55:12;3.05;;;2.40;;
32242;SDS011;18731;42.830;24.390;2023-03-24T09:57:50;2.30;;;2.10;;
32242;SDS011;18731;42.830;24.390;2023-03-24T10:02:56;2.33;;;2.10;;
32242;SDS011;18731;42.830;24.390;2023-03-24T10:05:34;3.25;;;2.42;;
32242;SDS011;18731;42.830;24.390;2023-03-24T10:14:20;2.60;;;2.30;;
32242;SDS011;18731;42.830;24.390;2023-03-24T10:21:41;2.20;;;2.00;;
32242;SDS011;18731;42.830;24.390;2023-03-24T10:24:17;2.83;;;2.22;;
32242;SDS011;18731;42.830;24.390;2023-03-24T10:29:43;2.45;;;2.10;;
32242;SDS011;18731;42.830;24.390;2023-03-24T10:34:39;2.55;;;2.30;;
32242;SDS011;18731;42.830;24.390;2023-03-24T10:37:10;4.15;;;2.75;;
32242;SDS011;18731;42.830;24.390;2023-03-24T10:39:38;2.40;;;2.20;;
32242;SDS011;18731;42.830;24.390;2023-03-24T10:42:04;2.63;;;2.20;;
32242;SDS011;18731;42.830;24.390;2023-03-24T10:44:30;3.78;;;2.10;;
32242;SDS011;18731;42.830;24.390;2023-03-24T10:46:57;3.03;;;2.33;;
32242;SDS011;18731;42.830;24.390;2023-03-24T10:49:27;2.50;;;2.30;;
32242;SDS011;18731;42.830;24.390;2023-03-24T10:51:53;2.25;;;2.03;;
32242;SDS011;18731;42.830;24.390;2023-03-24T10:54:26;2.58;;;2.10;;
32242;SDS011;18731;42.830;24.390;2023-03-24T10:59:33;2.70;;;2.00;;
32242;SDS011;18731;42.830;24.390;2023-03-24T11:04:43;2.30;;;2.10;;
32242;SDS011;18731;42.830;24.390;2023-03-24T11:07:17;3.05;;;2.55;;
32242;SDS011;18731;42.830;24.390;2023-03-24T11:10:33;3.05;;;2.17;;
32242;SDS011;18731;42.830;24.390;2023-03-24T11:12:35;2.67;;;2.10;;
32242;SDS011;18731;42.830;24.390;2023-03-24T11:17:40;2.00;;;1.90;;
32242;SDS011;18731;42.830;24.390;2023-03-24T11:20:14;2.03;;;1.90;;
32242;SDS011;18731;42.830;24.390;2023-03-24T11:22:41;5.97;;;2.00;;
32242;SDS011;18731;42.830;24.390;2023-03-24T11:25:37;4.45;;;1.90;;
32242;SDS011;18731;42.830;24.390;2023-03-24T11:28:12;2.70;;;2.05;;
32242;SDS011;18731;42.830;24.390;2023-03-24T11:33:49;2.38;;;2.17;;
32242;SDS011;18731;42.830;24.390;2023-03-24T11:39:02;2.28;;;2.03;;
32242;SDS011;18731;42.830;24.390;2023-03-24T11:41:35;2.38;;;2.10;;
32242;SDS011;18731;42.830;24.390;2023-03-24T11:44:21;2.05;;;1.85;;
32242;SDS011;18731;42.830;24.390;2023-03-24T11:46:50;2.53;;;2.20;;
32242;SDS011;18731;42.830;24.390;2023-03-24T11:49:21;3.40;;;2.00;;
32242;SDS011;18731;42.830;24.390;2023-03-24T11:51:56;2.25;;;2.05;;
32242;SDS011;18731;42.830;24.390;2023-03-24T11:54:23;2.45;;;2.00;;
32242;SDS011;18731;42.830;24.390;2023-03-24T11:56:55;3.67;;;2.03;;
32242;SDS011;18731;42.830;24.390;2023-03-24T11:59:25;2.97;;;2.10;;
32242;SDS011;18731;42.830;24.390;2023-03-24T12:04:48;2.30;;;2.10;;
32242;SDS011;18731;42.830;24.390;2023-03-24T12:13:11;4.88;;;2.60;;
32242;SDS011;18731;42.830;24.390;2023-03-24T12:18:23;2.55;;;2.30;;
32242;SDS011;18731;42.830;24.390;2023-03-24T12:37:36;2.47;;;2.20;;
32242;SDS011;18731;42.830;24.390;2023-03-24T12:40:25;2.40;;;2.20;;
32242;SDS011;18731;42.830;24.390;2023-03-24T12:43:22;5.05;;;2.30;;
32242;SDS011;18731;42.830;24.390;2023-03-24T12:45:58;5.45;;;3.75;;
32242;SDS011;18731;42.830;24.390;2023-03-24T12:51:25;2.35;;;2.15;;
32242;SDS011;18731;42.830;24.390;2023-03-24T12:54:16;3.03;;;2.38;;
32242;SDS011;18731;42.830;24.390;2023-03-24T12:56:47;2.97;;;2.20;;
32242;SDS011;18731;42.830;24.390;2023-03-24T12:59:30;2.40;;;2.20;;
32242;SDS011;18731;42.830;24.390;2023-03-24T13:02:15;3.55;;;2.85;;
32242;SDS011;18731;42.830;24.390;2023-03-24T13:04:49;3.22;;;2.60;;
32242;SDS011;18731;42.830;24.390;2023-03-24T13:07:20;5.10;;;2.92;;
32242;SDS011;18731;42.830;24.390;2023-03-24T13:17:52;2.92;;;2.50;;
32242;SDS011;18731;42.830;24.390;2023-03-24T13:20:32;3.50;;;2.90;;
32242;SDS011;18731;42.830;24.390;2023-03-24T13:26:02;4.53;;;2.75;;
32242;SDS011;18731;42.830;24.390;2023-03-24T13:28:58;4.22;;;2.80;;
32242;SDS011;18731;42.830;24.390;2023-03-24T13:31:48;3.17;;;2.70;;
32242;SDS011;18731;42.830;24.390;2023-03-24T13:34:26;4.18;;;2.70;;
32242;SDS011;18731;42.830;24.390;2023-03-24T13:37:05;3.88;;;2.33;;
32242;SDS011;18731;42.830;24.390;2023-03-24T13:39:54;2.90;;;2.60;;
32242;SDS011;18731;42.830;24.390;2023-03-24T13:42:33;3.67;;;2.90;;
32242;SDS011;18731;42.830;24.390;2023-03-24T13:45:05;3.00;;;2.42;;
32242;SDS011;18731;42.830;24.390;2023-03-24T13:47:48;4.35;;;2.70;;
32242;SDS011;18731;42.830;24.390;2023-03-24T13:50:23;4.25;;;2.50;;
32242;SDS011;18731;42.830;24.390;2023-03-24T13:52:50;3.70;;;2.42;;
32242;SDS011;18731;42.830;24.390;2023-03-24T13:55:22;3.35;;;2.63;;
32242;SDS011;18731;42.830;24.390;2023-03-24T13:57:55;2.72;;;2.47;;
32242;SDS011;18731;42.830;24.390;2023-03-24T14:00:29;4.55;;;2.90;;
32242;SDS011;18731;42.830;24.390;2023-03-24T14:02:59;3.50;;;2.60;;
32242;SDS011;18731;42.830;24.390;2023-03-24T14:05:57;5.13;;;2.70;;
32242;SDS011;18731;42.830;24.390;2023-03-24T14:16:48;2.78;;;2.53;;
32242;SDS011;18731;42.830;24.390;2023-03-24T14:19:36;5.95;;;2.80;;
32242;SDS011;18731;42.830;24.390;2023-03-24T14:24:44;4.90;;;2.85;;
32242;SDS011;18731;42.830;24.390;2023-03-24T14:27:30;6.93;;;2.80;;
32242;SDS011;18731;42.830;24.390;2023-03-24T14:32:43;6.10;;;2.90;;
32242;SDS011;18731;42.830;24.390;2023-03-24T14:37:57;3.50;;;2.90;;
32242;SDS011;18731;42.830;24.390;2023-03-24T14:40:37;3.50;;;2.80;;
32242;SDS011;18731;42.830;24.390;2023-03-24T14:46:48;3.40;;;2.70;;
32242;SDS011;18731;42.830;24.390;2023-03-24T14:54:33;4.30;;;2.75;;
32242;SDS011;18731;42.830;24.390;2023-03-24T14:56:59;3.72;;;2.70;;
32242;SDS011;18731;42.830;24.390;2023-03-24T14:59:38;4.90;;;2.90;;
32242;SDS011;18731;42.830;24.390;2023-03-24T15:02:51;3.17;;;2.60;;
32242;SDS011;18731;42.830;24.390;2023-03-24T15:07:38;3.30;;;2.65;;
32242;SDS011;18731;42.830;24.390;2023-03-24T15:10:25;3.95;;;3.08;;
32242;SDS011;18731;42.830;24.390;2023-03-24T15:12:57;5.90;;;3.13;;
32242;SDS011;18731;42.830;24.390;2023-03-24T15:15:23;4.75;;;2.85;;
32242;SDS011;18731;42.830;24.390;2023-03-24T15:17:49;3.70;;;3.10;;
32242;SDS011;18731;42.830;24.390;2023-03-24T15:20:30;4.68;;;2.70;;
32242;SDS011;18731;42.830;24.390;2023-03-24T15:23:05;3.35;;;2.70;;
32242;SDS011;18731;42.830;24.390;2023-03-24T15:25:31;4.90;;;3.20;;
32242;SDS011;18731;42.830;24.390;2023-03-24T15:27:57;4.32;;;3.25;;
32242;SDS011;18731;42.830;24.390;2023-03-24T15:30:23;8.00;;;2.90;;
32242;SDS011;18731;42.830;24.390;2023-03-24T15:32:50;6.38;;;3.10;;
32242;SDS011;18731;42.830;24.390;2023-03-24T15:35:17;4.80;;;3.55;;
32242;SDS011;18731;42.830;24.390;2023-03-24T15:37:54;8.85;;;3.63;;
32242;SDS011;18731;42.830;24.390;2023-03-24T15:42:50;5.70;;;3.60;;
32242;SDS011;18731;42.830;24.390;2023-03-24T15:45:27;10.65;;;3.65;;
32242;SDS011;18731;42.830;24.390;2023-03-24T15:47:54;6.63;;;3.47;;
32242;SDS011;18731;42.830;24.390;2023-03-24T15:53:40;20.50;;;3.95;;
32242;SDS011;18731;42.830;24.390;2023-03-24T15:58:50;5.45;;;4.05;;
32242;SDS011;18731;42.830;24.390;2023-03-24T16:01:27;9.38;;;3.88;;
32242;SDS011;18731;42.830;24.390;2023-03-24T16:03:55;6.93;;;3.92;;
32242;SDS011;18731;42.830;24.390;2023-03-24T16:06:26;7.45;;;4.45;;
32242;SDS011;18731;42.830;24.390;2023-03-24T16:08:56;8.15;;;3.92;;
32242;SDS011;18731;42.830;24.390;2023-03-24T16:11:25;9.30;;;4.18;;
32242;SDS011;18731;42.830;24.390;2023-03-24T16:13:52;6.63;;;4.03;;
32242;SDS011;18731;42.830;24.390;2023-03-24T16:16:26;4.38;;;3.85;;
32242;SDS011;18731;42.830;24.390;2023-03-24T16:18:53;10.25;;;4.82;;
32242;SDS011;18731;42.830;24.390;2023-03-24T16:21:22;9.05;;;4.43;;
32242;SDS011;18731;42.830;24.390;2023-03-24T16:23:50;8.20;;;5.00;;
32242;SDS011;18731;42.830;24.390;2023-03-24T16:26:18;8.20;;;4.97;;
32242;SDS011;18731;42.830;24.390;2023-03-24T16:28:49;12.60;;;6.35;;
32242;SDS011;18731;42.830;24.390;2023-03-24T16:33:47;21.55;;;14.20;;
32242;SDS011;18731;42.830;24.390;2023-03-24T16:36:13;14.38;;;6.47;;
32242;SDS011;18731;42.830;24.390;2023-03-24T16:38:41;9.18;;;6.28;;
32242;SDS011;18731;42.830;24.390;2023-03-24T16:41:07;6.03;;;4.78;;
32242;SDS011;18731;42.830;24.390;2023-03-24T16:43:35;12.18;;;4.97;;
32242;SDS011;18731;42.830;24.390;2023-03-24T16:46:01;11.05;;;5.15;;
32242;SDS011;18731;42.830;24.390;2023-03-24T16:48:27;7.40;;;3.60;;
32242;SDS011;18731;42.830;24.390;2023-03-24T16:50:53;8.75;;;4.47;;
32242;SDS011;18731;42.830;24.390;2023-03-24T16:53:20;9.70;;;4.10;;
32242;SDS011;18731;42.830;24.390;2023-03-24T16:55:46;6.45;;;4.10;;
32242;SDS011;18731;42.830;24.390;2023-03-24T16:58:13;8.70;;;4.53;;
32242;SDS011;18731;42.830;24.390;2023-03-24T17:00:43;14.40;;;8.73;;
32242;SDS011;18731;42.830;24.390;2023-03-24T17:03:09;16.88;;;10.68;;
32242;SDS011;18731;42.830;24.390;2023-03-24T17:05:47;12.30;;;5.90;;
32242;SDS011;18731;42.830;24.390;2023-03-24T17:08:15;12.80;;;6.03;;
32242;SDS011;18731;42.830;24.390;2023-03-24T17:10:43;10.57;;;7.13;;
32242;SDS011;18731;42.830;24.390;2023-03-24T17:13:15;9.05;;;5.70;;
32242;SDS011;18731;42.830;24.390;2023-03-24T17:15:45;8.82;;;5.00;;
32242;SDS011;18731;42.830;24.390;2023-03-24T17:18:11;36.15;;;18.10;;
32242;SDS011;18731;42.830;24.390;2023-03-24T17:20:37;15.00;;;8.07;;
32242;SDS011;18731;42.830;24.390;2023-03-24T17:23:07;30.75;;;15.20;;
32242;SDS011;18731;42.830;24.390;2023-03-24T17:25:35;9.23;;;6.85;;
32242;SDS011;18731;42.830;24.390;2023-03-24T17:28:01;16.13;;;10.10;;
32242;SDS011;18731;42.830;24.390;2023-03-24T17:30:27;16.80;;;8.73;;
32242;SDS011;18731;42.830;24.390;2023-03-24T17:32:54;18.42;;;8.73;;
32242;SDS011;18731;42.830;24.390;2023-03-24T17:35:22;41.05;;;22.60;;
32242;SDS011;18731;42.830;24.390;2023-03-24T17:37:48;94.15;;;54.83;;
32242;SDS011;18731;42.830;24.390;2023-03-24T17:40:17;54.85;;;26.05;;
32242;SDS011;18731;42.830;24.390;2023-03-24T17:42:45;21.02;;;12.60;;
32242;SDS011;18731;42.830;24.390;2023-03-24T17:45:12;40.28;;;21.05;;
32242;SDS011;18731;42.830;24.390;2023-03-24T17:47:40;14.25;;;8.65;;
32242;SDS011;18731;42.830;24.390;2023-03-24T17:50:06;14.13;;;8.43;;
32242;SDS011;18731;42.830;24.390;2023-03-24T17:52:39;18.17;;;9.90;;
32242;SDS011;18731;42.830;24.390;2023-03-24T17:55:09;15.75;;;10.15;;
32242;SDS011;18731;42.830;24.390;2023-03-24T17:57:35;16.95;;;10.10;;
32242;SDS011;18731;42.830;24.390;2023-03-24T18:00:01;14.32;;;9.57;;
32242;SDS011;18731;42.830;24.390;2023-03-24T18:02:30;13.55;;;8.25;;
32242;SDS011;18731;42.830;24.390;2023-03-24T18:04:56;10.68;;;6.38;;
32242;SDS011;18731;42.830;24.390;2023-03-24T18:07:23;13.63;;;6.90;;
32242;SDS011;18731;42.830;24.390;2023-03-24T18:09:48;15.45;;;7.35;;
32242;SDS011;18731;42.830;24.390;2023-03-24T18:12:16;19.17;;;10.13;;
32242;SDS011;18731;42.830;24.390;2023-03-24T18:14:43;25.88;;;11.80;;
32242;SDS011;18731;42.830;24.390;2023-03-24T18:17:09;15.77;;;9.02;;
32242;SDS011;18731;42.830;24.390;2023-03-24T18:19:36;15.68;;;8.18;;
32242;SDS011;18731;42.830;24.390;2023-03-24T18:22:02;23.58;;;9.85;;
32242;SDS011;18731;42.830;24.390;2023-03-24T18:24:28;19.98;;;9.38;;
32242;SDS011;18731;42.830;24.390;2023-03-24T18:26:55;14.55;;;8.35;;
32242;SDS011;18731;42.830;24.390;2023-03-24T18:29:20;15.60;;;8.40;;
32242;SDS011;18731;42.830;24.390;2023-03-24T18:31:47;13.13;;;6.45;;
32242;SDS011;18731;42.830;24.390;2023-03-24T18:34:13;96.55;;;31.40;;
32242;SDS011;18731;42.830;24.390;2023-03-24T18:36:39;124.15;;;37.90;;
32242;SDS011;18731;42.830;24.390;2023-03-24T18:39:06;31.35;;;13.90;;
32242;SDS011;18731;42.830;24.390;2023-03-24T18:41:33;19.88;;;10.10;;
32242;SDS011;18731;42.830;24.390;2023-03-24T18:44:04;32.80;;;15.25;;
32242;SDS011;18731;42.830;24.390;2023-03-24T18:46:32;12.45;;;7.18;;
32242;SDS011;18731;42.830;24.390;2023-03-24T18:48:58;26.13;;;9.70;;
32242;SDS011;18731;42.830;24.390;2023-03-24T18:51:24;17.25;;;9.40;;
32242;SDS011;18731;42.830;24.390;2023-03-24T18:53:51;11.55;;;7.15;;
32242;SDS011;18731;42.830;24.390;2023-03-24T18:56:17;12.85;;;6.55;;
32242;SDS011;18731;42.830;24.390;2023-03-24T18:58:44;13.73;;;8.00;;
32242;SDS011;18731;42.830;24.390;2023-03-24T19:01:11;17.10;;;9.23;;
32242;SDS011;18731;42.830;24.390;2023-03-24T19:03:39;13.80;;;7.38;;
32242;SDS011;18731;42.830;24.390;2023-03-24T19:06:09;31.50;;;9.52;;
32242;SDS011;18731;42.830;24.390;2023-03-24T19:08:37;24.17;;;11.18;;
32242;SDS011;18731;42.830;24.390;2023-03-24T19:11:09;17.23;;;10.40;;
32242;SDS011;18731;42.830;24.390;2023-03-24T19:13:35;27.48;;;8.15;;
32242;SDS011;18731;42.830;24.390;2023-03-24T19:16:02;17.63;;;9.15;;
32242;SDS011;18731;42.830;24.390;2023-03-24T19:18:28;18.33;;;8.65;;
32242;SDS011;18731;42.830;24.390;2023-03-24T19:20:57;19.48;;;11.35;;
32242;SDS011;18731;42.830;24.390;2023-03-24T19:23:23;24.70;;;15.52;;
32242;SDS011;18731;42.830;24.390;2023-03-24T19:25:50;23.92;;;10.32;;
32242;SDS011;18731;42.830;24.390;2023-03-24T19:28:29;14.18;;;8.05;;
32242;SDS011;18731;42.830;24.390;2023-03-24T19:30:56;12.75;;;8.98;;
32242;SDS011;18731;42.830;24.390;2023-03-24T19:33:24;21.88;;;12.40;;
32242;SDS011;18731;42.830;24.390;2023-03-24T19:35:50;13.73;;;7.95;;
32242;SDS011;18731;42.830;24.390;2023-03-24T19:38:17;14.40;;;7.93;;
32242;SDS011;18731;42.830;24.390;2023-03-24T19:40:46;11.25;;;7.05;;
32242;SDS011;18731;42.830;24.390;2023-03-24T19:43:11;16.63;;;6.97;;
32242;SDS011;18731;42.830;24.390;2023-03-24T19:45:37;11.90;;;6.82;;
32242;SDS011;18731;42.830;24.390;2023-03-24T19:48:07;14.10;;;8.85;;
32242;SDS011;18731;42.830;24.390;2023-03-24T19:50:34;18.98;;;11.07;;
32242;SDS011;18731;42.830;24.390;2023-03-24T19:52:59;53.08;;;25.50;;
32242;SDS011;18731;42.830;24.390;2023-03-24T19:55:25;10.18;;;6.70;;
32242;SDS011;18731;42.830;24.390;2023-03-24T19:57:50;28.23;;;16.10;;
32242;SDS011;18731;42.830;24.390;2023-03-24T20:00:16;19.02;;;11.07;;
32242;SDS011;18731;42.830;24.390;2023-03-24T20:02:42;29.13;;;14.85;;
32242;SDS011;18731;42.830;24.390;2023-03-24T20:05:08;28.38;;;16.05;;
32242;SDS011;18731;42.830;24.390;2023-03-24T20:07:37;26.98;;;12.55;;
32242;SDS011;18731;42.830;24.390;2023-03-24T20:10:03;29.02;;;16.00;;
32242;SDS011;18731;42.830;24.390;2023-03-24T20:12:29;31.58;;;15.48;;
32242;SDS011;18731;42.830;24.390;2023-03-24T20:14:56;41.50;;;19.88;;
32242;SDS011;18731;42.830;24.390;2023-03-24T20:17:23;46.42;;;20.58;;
32242;SDS011;18731;42.830;24.390;2023-03-24T20:19:55;39.50;;;18.08;;
32242;SDS011;18731;42.830;24.390;2023-03-24T20:22:21;30.67;;;14.63;;
32242;SDS011;18731;42.830;24.390;2023-03-24T20:24:46;16.00;;;9.18;;
32242;SDS011;18731;42.830;24.390;2023-03-24T20:27:13;12.93;;;7.80;;
32242;SDS011;18731;42.830;24.390;2023-03-24T20:29:40;21.73;;;14.48;;
32242;SDS011;18731;42.830;24.390;2023-03-24T20:32:06;19.58;;;10.55;;
32242;SDS011;18731;42.830;24.390;2023-03-24T20:34:35;16.75;;;10.18;;
32242;SDS011;18731;42.830;24.390;2023-03-24T20:37:03;12.68;;;7.15;;
32242;SDS011;18731;42.830;24.390;2023-03-24T20:39:29;14.77;;;8.18;;
32242;SDS011;18731;42.830;24.390;2023-03-24T20:41:55;12.57;;;7.72;;
32242;SDS011;18731;42.830;24.390;2023-03-24T20:44:21;15.75;;;8.02;;
32242;SDS011;18731;42.830;24.390;2023-03-24T20:46:47;14.02;;;7.90;;
32242;SDS011;18731;42.830;24.390;2023-03-24T20:49:12;21.70;;;10.85;;
32242;SDS011;18731;42.830;24.390;2023-03-24T20:51:43;18.33;;;9.40;;
32242;SDS011;18731;42.830;24.390;2023-03-24T20:54:10;14.48;;;6.88;;
32242;SDS011;18731;42.830;24.390;2023-03-24T20:56:36;11.02;;;6.70;;